Time;durP1;ratioP1;P1;durP2;ratioP2;P2;SDS_P1;SDS_P2;PMS_P1;PMS_P2;Temp;Humidity;BMP_temperature;BMP_pressure;BME280_temperature;BME280_humidity;BME280_pressure;Samples;Min_cycle;Max_cycle;Signal;HPM_P1;HPM_P2
2023/04/03 04:46:48;;;;;;;;;27.00;19.75;;;;;;;;4709185;22;51786;-71
2023/04/03 04:49:13;;;;;;;;;22.75;18.25;;;;;;;;5068060;28;51146;-74
2023/04/03 04:51:38;;;;;;;;;21.25;19.50;;;;;;;;5070204;27;49706;-77
2023/04/03 04:54:04;;;;;;;;;20.75;20.25;;;;;;;;5068541;28;50106;-77
2023/04/03 04:56:29;;;;;;;;;22.50;19.00;;;;;;;;5070272;28;50039;-74
2023/04/03 04:58:54;;;;;;;;;18.75;17.25;;;;;;;;5066528;27;49887;-75
2023/04/03 05:01:19;;;;;;;;;23.50;19.00;;;;;;;;5068824;28;49739;-76
2023/04/03 05:03:45;;;;;;;;;24.75;21.50;;;;;;;;5070119;28;50155;-77
2023/04/03 05:06:10;;;;;;;;;14.25;14.25;;;;;;;;5070265;27;50403;-73
2023/04/03 05:08:35;;;;;;;;;20.25;18.50;;;;;;;;5069902;27;51070;-74
2023/04/03 05:11:00;;;;;;;;;18.75;18.75;;;;;;;;5068943;28;49848;-74
2023/04/03 05:13:25;;;;;;;;;17.75;15.50;;;;;;;;5067020;27;50417;-74
2023/04/03 05:15:51;;;;;;;;;23.00;19.50;;;;;;;;5069856;28;49770;-73
2023/04/03 05:18:16;;;;;;;;;22.25;19.25;;;;;;;;5068544;27;52278;-74
2023/04/03 05:20:43;;;;;;;;;22.25;19.75;;;;;;;;5069011;28;49844;-74
2023/04/03 05:23:09;;;;;;;;;20.75;18.00;;;;;;;;5067863;28;50013;-73
2023/04/03 05:25:34;;;;;;;;;19.00;15.75;;;;;;;;5069966;28;50403;-74
2023/04/03 05:27:59;;;;;;;;;19.00;14.50;;;;;;;;5069538;27;51627;-73
2023/04/03 05:30:24;;;;;;;;;21.75;20.25;;;;;;;;5069705;28;49691;-74
2023/04/03 05:32:49;;;;;;;;;16.25;16.25;;;;;;;;5064794;28;49649;-76
2023/04/03 05:35:14;;;;;;;;;24.75;19.00;;;;;;;;5069528;28;50142;-75
2023/04/03 05:37:40;;;;;;;;;23.50;17.25;;;;;;;;5068848;27;50749;-75
2023/04/03 05:40:06;;;;;;;;;21.00;20.00;;;;;;;;5069747;27;49771;-74
2023/04/03 05:42:32;;;;;;;;;23.25;22.50;;;;;;;;5062477;28;49777;-75
2023/04/03 05:44:57;;;;;;;;;22.25;21.75;;;;;;;;5068929;27;49947;-74
2023/04/03 05:47:22;;;;;;;;;20.25;19.00;;;;;;;;5078180;27;50085;-75
2023/04/03 05:49:48;;;;;;;;;29.00;21.25;;;;;;;;5086055;27;49841;-76
2023/04/03 05:52:27;;;;;;;;;20.50;19.00;;;;;;;;5084117;27;49819;-75
2023/04/03 05:54:52;;;;;;;;;23.25;19.50;;;;;;;;5088788;27;50144;-74
2023/04/03 05:57:18;;;;;;;;;20.00;18.00;;;;;;;;5088776;27;50766;-75
2023/04/03 05:59:43;;;;;;;;;23.75;23.50;;;;;;;;5070751;27;49773;-75
2023/04/03 06:02:10;;;;;;;;;27.50;20.00;;;;;;;;5089662;27;49834;-80
2023/04/03 06:04:36;;;;;;;;;20.25;19.50;;;;;;;;5090213;27;49675;-77
2023/04/03 06:07:02;;;;;;;;;32.75;28.00;;;;;;;;5089524;27;50193;-76
2023/04/03 06:09:28;;;;;;;;;27.75;25.50;;;;;;;;5090066;27;49826;-74
2023/04/03 06:11:54;;;;;;;;;29.75;26.50;;;;;;;;5090023;27;50031;-75
2023/04/03 06:14:19;;;;;;;;;27.00;25.00;;;;;;;;5089135;27;49937;-74
2023/04/03 06:16:44;;;;;;;;;17.00;16.75;;;;;;;;5088845;27;49998;-74
2023/04/03 06:19:10;;;;;;;;;26.00;23.50;;;;;;;;5089002;27;50105;-74
2023/04/03 06:21:36;;;;;;;;;23.25;20.25;;;;;;;;5089665;27;49932;-74
2023/04/03 06:24:02;;;;;;;;;22.00;22.00;;;;;;;;5089915;27;49782;-74
2023/04/03 06:26:28;;;;;;;;;27.00;25.25;;;;;;;;5089157;27;49889;-74
2023/04/03 06:28:53;;;;;;;;;23.75;21.75;;;;;;;;5089314;27;49734;-74
2023/04/03 06:31:18;;;;;;;;;24.50;22.25;;;;;;;;5089668;27;49844;-73
2023/04/03 06:33:44;;;;;;;;;24.75;24.25;;;;;;;;5089687;27;50021;-74
2023/04/03 06:36:10;;;;;;;;;24.50;21.75;;;;;;;;5089248;27;49712;-74
2023/04/03 06:38:35;;;;;;;;;29.50;24.25;;;;;;;;5089658;27;49705;-74
2023/04/03 06:41:00;;;;;;;;;27.75;26.75;;;;;;;;5087123;27;49969;-74
2023/04/03 06:43:26;;;;;;;;;21.75;21.50;;;;;;;;5088959;27;49998;-74
2023/04/03 06:45:51;;;;;;;;;28.00;22.75;;;;;;;;5087926;27;50597;-74
2023/04/03 06:48:16;;;;;;;;;23.00;19.00;;;;;;;;5089475;27;49873;-75
2023/04/03 06:50:42;;;;;;;;;35.75;28.75;;;;;;;;5070905;27;49782;-75
2023/04/03 06:53:07;;;;;;;;;24.50;22.25;;;;;;;;5089540;27;49991;-75
2023/04/03 06:55:32;;;;;;;;;23.25;20.50;;;;;;;;5088907;27;50366;-74
2023/04/03 06:57:57;;;;;;;;;33.00;30.00;;;;;;;;5087658;27;50134;-74
2023/04/03 07:00:23;;;;;;;;;23.75;22.75;;;;;;;;5081078;27;49772;-73
2023/04/03 07:02:48;;;;;;;;;30.75;25.25;;;;;;;;5085046;27;49810;-74
2023/04/03 07:05:13;;;;;;;;;25.25;24.75;;;;;;;;5088532;27;50713;-75
2023/04/03 07:07:39;;;;;;;;;26.00;25.00;;;;;;;;5088993;27;49818;-74
2023/04/03 07:10:06;;;;;;;;;28.25;21.75;;;;;;;;5088852;27;49845;-75
2023/04/03 07:12:31;;;;;;;;;23.00;21.00;;;;;;;;5084293;27;50043;-74
2023/04/03 07:14:56;;;;;;;;;18.00;16.00;;;;;;;;5087751;27;49988;-74
2023/04/03 07:17:21;;;;;;;;;25.00;23.00;;;;;;;;5088147;27;49919;-74
2023/04/03 07:19:46;;;;;;;;;20.00;19.50;;;;;;;;5088026;27;49793;-74
2023/04/03 07:22:12;;;;;;;;;27.75;23.00;;;;;;;;5069749;27;49791;-74
2023/04/03 07:24:37;;;;;;;;;26.00;24.50;;;;;;;;5077103;27;50895;-74
2023/04/03 07:27:03;;;;;;;;;26.00;26.00;;;;;;;;5080637;27;49867;-73
2023/04/03 07:29:28;;;;;;;;;19.50;17.25;;;;;;;;5079857;27;49809;-73
2023/04/03 07:31:55;;;;;;;;;22.50;20.25;;;;;;;;5075191;27;50093;-72
2023/04/03 07:34:20;;;;;;;;;16.75;16.75;;;;;;;;5073911;27;50027;-73
2023/04/03 07:36:46;;;;;;;;;24.75;23.75;;;;;;;;5078585;27;49748;-74
2023/04/03 07:39:11;;;;;;;;;27.25;25.75;;;;;;;;5075199;27;49967;-73
2023/04/03 07:41:36;;;;;;;;;23.50;20.75;;;;;;;;5077487;27;49763;-75
2023/04/03 07:44:02;;;;;;;;;26.75;24.00;;;;;;;;5076641;27;50773;-76
2023/04/03 07:46:27;;;;;;;;;27.25;24.00;;;;;;;;5079840;27;50223;-76
2023/04/03 07:48:52;;;;;;;;;23.00;19.00;;;;;;;;5076440;27;49941;-74
2023/04/03 07:51:18;;;;;;;;;18.25;16.50;;;;;;;;5076455;27;49935;-75
2023/04/03 07:53:43;;;;;;;;;14.50;14.50;;;;;;;;5075573;27;49839;-74
2023/04/03 07:56:09;;;;;;;;;20.00;20.00;;;;;;;;5078524;27;49969;-75
2023/04/03 07:58:34;;;;;;;;;21.75;14.75;;;;;;;;5069967;27;49988;-75
2023/04/03 08:00:59;;;;;;;;;16.25;13.25;;;;;;;;5089036;27;50066;-75
2023/04/03 08:03:25;;;;;;;;;25.50;15.00;;;;;;;;5083807;27;50145;-76
2023/04/03 08:05:50;;;;;;;;;16.50;16.50;;;;;;;;5088176;27;49683;-75
2023/04/03 08:08:18;;;;;;;;;16.50;16.50;;;;;;;;5089637;27;50090;-76
2023/04/03 08:10:43;;;;;;;;;24.50;20.50;;;;;;;;5067147;27;49849;-74
2023/04/03 08:13:09;;;;;;;;;16.75;16.00;;;;;;;;5080407;27;50122;-76
2023/04/03 08:15:34;;;;;;;;;17.75;15.75;;;;;;;;5080102;27;49885;-75
2023/04/03 08:18:00;;;;;;;;;19.75;17.25;;;;;;;;5082080;27;50257;-75
2023/04/03 08:20:26;;;;;;;;;23.50;22.00;;;;;;;;5082365;27;49744;-74
2023/04/03 08:22:51;;;;;;;;;17.25;13.25;;;;;;;;5079912;27;49970;-76
2023/04/03 08:25:17;;;;;;;;;19.25;16.75;;;;;;;;5083841;27;49838;-76
2023/04/03 08:27:42;;;;;;;;;20.25;20.25;;;;;;;;5091038;27;49820;-75
2023/04/03 08:30:08;;;;;;;;;19.00;15.25;;;;;;;;5091749;27;50353;-75
2023/04/03 08:32:34;;;;;;;;;13.00;11.75;;;;;;;;5088998;27;50200;-75
2023/04/03 08:34:59;;;;;;;;;15.00;15.00;;;;;;;;5091461;27;49833;-75
2023/04/03 08:37:25;;;;;;;;;16.50;16.50;;;;;;;;5091550;27;49883;-75
2023/04/03 08:39:50;;;;;;;;;18.25;17.50;;;;;;;;5088760;27;49884;-75
2023/04/03 08:42:34;;;;;;;;;11.50;11.50;;;;;;;;5080332;27;51274;-75
2023/04/03 08:45:09;;;;;;;;;15.00;13.50;;;;;;;;5081252;27;50089;-77
2023/04/03 08:47:34;;;;;;;;;18.25;16.75;;;;;;;;5082228;27;50122;-77
2023/04/03 08:50:01;;;;;;;;;8.50;8.50;;;;;;;;5085631;27;50091;-76
2023/04/03 08:52:26;;;;;;;;;10.25;8.00;;;;;;;;5093240;27;49952;-76
2023/04/03 08:55:01;;;;;;;;;7.60;7.40;;;;;;;;5086605;27;50029;-76
2023/04/03 08:57:38;;;;;;;;;11.25;10.25;;;;;;;;5088031;27;50162;-76
2023/04/03 09:00:07;;;;;;;;;9.00;9.00;;;;;;;;5073066;27;49950;-76
2023/04/03 09:03:02;;;;;;;;;9.75;9.75;;;;;;;;5090165;27;49942;-75
2023/04/03 09:05:30;;;;;;;;;8.00;8.00;;;;;;;;5068159;27;49950;-76
2023/04/03 09:08:21;;;;;;;;;12.00;11.00;;;;;;;;5086962;27;49704;-75
2023/04/03 09:10:46;;;;;;;;;9.00;8.00;;;;;;;;5083066;27;49613;-75
2023/04/03 09:13:14;;;;;;;;;17.50;14.25;;;;;;;;5086656;27;51086;-75
2023/04/03 09:15:39;;;;;;;;;18.00;13.00;;;;;;;;5068039;27;49800;-75
2023/04/03 09:18:12;;;;;;;;;13.75;12.00;;;;;;;;5089462;27;49746;-75
2023/04/03 09:20:46;;;;;;;;;9.00;9.00;;;;;;;;5086365;27;49939;-72
2023/04/03 09:23:14;;;;;;;;;14.50;13.75;;;;;;;;5081128;27;50157;-76
2023/04/03 09:25:40;;;;;;;;;11.75;9.25;;;;;;;;5085761;27;50264;-76
2023/04/03 09:28:09;;;;;;;;;12.50;8.75;;;;;;;;5088268;27;49825;-75
2023/04/03 09:30:35;;;;;;;;;8.00;8.00;;;;;;;;5088511;27;50034;-75
2023/04/03 09:33:00;;;;;;;;;9.00;7.50;;;;;;;;5090318;27;49698;-75
2023/04/03 09:35:27;;;;;;;;;7.00;6.00;;;;;;;;5088971;27;49771;-75
2023/04/03 09:37:59;;;;;;;;;7.00;7.00;;;;;;;;5079311;27;50290;-76
2023/04/03 09:40:24;;;;;;;;;12.25;11.25;;;;;;;;5078736;27;49767;-76
2023/04/03 09:42:50;;;;;;;;;7.00;7.00;;;;;;;;5078315;27;50951;-74
2023/04/03 09:45:36;;;;;;;;;10.00;10.00;;;;;;;;5079273;27;49909;-74
2023/04/03 09:48:06;;;;;;;;;11.25;9.00;;;;;;;;5083582;27;49856;-74
2023/04/03 09:50:31;;;;;;;;;10.50;8.25;;;;;;;;5089155;27;49980;-75
2023/04/03 09:52:57;;;;;;;;;10.25;9.00;;;;;;;;5088894;27;49880;-69
2023/04/03 09:55:32;;;;;;;;;2.75;2.75;;;;;;;;5089659;27;49747;-73
2023/04/03 09:57:59;;;;;;;;;8.00;8.00;;;;;;;;5090150;27;49797;-72
2023/04/03 10:00:26;;;;;;;;;10.75;8.75;;;;;;;;5086595;27;49731;-73
2023/04/03 10:02:54;;;;;;;;;6.25;6.25;;;;;;;;5080457;27;50254;-75
2023/04/03 10:05:25;;;;;;;;;10.75;8.50;;;;;;;;5078928;27;49889;-73
2023/04/03 10:07:50;;;;;;;;;7.75;6.75;;;;;;;;5078309;27;49783;-74
2023/04/03 10:10:17;;;;;;;;;9.00;9.00;;;;;;;;5077806;27;49981;-74
2023/04/03 10:12:42;;;;;;;;;12.50;9.25;;;;;;;;5080007;27;50498;-75
2023/04/03 10:15:11;;;;;;;;;8.00;8.00;;;;;;;;5083376;27;50984;-91
2023/04/03 10:17:46;;;;;;;;;7.25;7.25;;;;;;;;5060643;27;49936;-80
2023/04/03 10:20:11;;;;;;;;;12.00;12.00;;;;;;;;5084888;27;51063;-80
2023/04/03 10:22:44;;;;;;;;;12.00;8.00;;;;;;;;5085319;27;50674;-83
2023/04/03 10:25:13;;;;;;;;;14.25;11.00;;;;;;;;5062966;27;50339;-80
2023/04/03 10:27:44;;;;;;;;;7.25;7.25;;;;;;;;5085099;27;49972;-81
2023/04/03 10:30:26;;;;;;;;;6.50;6.50;;;;;;;;5066509;27;49882;-80
2023/04/03 10:33:11;;;;;;;;;6.25;6.25;;;;;;;;5082617;27;52517;-80
2023/04/03 10:35:44;;;;;;;;;7.00;6.00;;;;;;;;5088926;27;49995;-82
2023/04/03 10:38:15;;;;;;;;;7.75;7.75;;;;;;;;5085207;27;49747;-76
2023/04/03 10:40:47;;;;;;;;;8.00;7.75;;;;;;;;5083306;27;49710;-81
2023/04/03 10:43:16;;;;;;;;;7.25;7.25;;;;;;;;5083323;27;50920;-80
2023/04/03 10:45:57;;;;;;;;;9.50;7.50;;;;;;;;5070283;27;49990;-85
2023/04/03 10:48:25;;;;;;;;;10.25;5.00;;;;;;;;5084213;27;50142;-82
2023/04/03 10:50:50;;;;;;;;;8.00;7.50;;;;;;;;5084408;27;50145;-83
2023/04/03 10:53:32;;;;;;;;;5.25;4.00;;;;;;;;5080834;27;51347;-81
2023/04/03 10:56:13;;;;;;;;;7.50;5.00;;;;;;;;5082657;27;49806;-78
2023/04/03 10:58:45;;;;;;;;;7.75;7.75;;;;;;;;5085011;27;50863;-81
2023/04/03 11:01:23;;;;;;;;;4.00;4.00;;;;;;;;5081265;27;50462;-77
2023/04/03 11:03:53;;;;;;;;;12.00;4.25;;;;;;;;5081392;27;51487;-79
2023/04/03 11:06:21;;;;;;;;;6.00;6.00;;;;;;;;5081765;27;51334;-77
2023/04/03 11:08:51;;;;;;;;;6.00;6.00;;;;;;;;5081144;27;50182;-78
2023/04/03 11:11:19;;;;;;;;;4.00;4.00;;;;;;;;5078785;27;49782;-79
2023/04/03 11:13:44;;;;;;;;;10.00;3.50;;;;;;;;5080876;27;49956;-89
2023/04/03 11:16:12;;;;;;;;;6.00;6.00;;;;;;;;5061746;27;50243;-78
2023/04/03 11:18:40;;;;;;;;;4.00;4.00;;;;;;;;5080865;27;49993;-81
2023/04/03 11:21:09;;;;;;;;;10.00;9.00;;;;;;;;5080606;27;49855;-83
2023/04/03 11:23:35;;;;;;;;;4.00;4.00;;;;;;;;5080062;27;51071;-76
2023/04/03 11:26:11;;;;;;;;;4.00;4.00;;;;;;;;5079696;27;51256;-74
2023/04/03 11:28:37;;;;;;;;;4.00;1.50;;;;;;;;5080123;27;49786;-76
2023/04/03 11:31:02;;;;;;;;;4.00;4.00;;;;;;;;5079501;27;50062;-74
2023/04/03 11:33:33;;;;;;;;;6.40;6.40;;;;;;;;5079154;27;49866;-76
2023/04/03 11:36:01;;;;;;;;;3.75;3.00;;;;;;;;5077900;27;51269;-76
2023/04/03 11:38:30;;;;;;;;;9.00;5.50;;;;;;;;5077085;27;51749;-76
2023/04/03 11:40:56;;;;;;;;;4.75;4.00;;;;;;;;5078653;27;50133;-75
2023/04/03 11:43:25;;;;;;;;;4.25;4.25;;;;;;;;5080730;27;50830;-75
2023/04/03 11:45:54;;;;;;;;;6.00;5.00;;;;;;;;5083006;27;49890;-76
2023/04/03 11:48:29;;;;;;;;;9.00;4.50;;;;;;;;5088637;27;50149;-76
2023/04/03 11:51:17;;;;;;;;;7.50;5.75;;;;;;;;5092852;27;49921;-77
2023/04/03 11:53:43;;;;;;;;;3.00;0.25;;;;;;;;5076913;27;51362;-75
2023/04/03 11:56:23;;;;;;;;;9.75;6.50;;;;;;;;5092126;27;49727;-76
2023/04/03 11:59:07;;;;;;;;;4.00;3.25;;;;;;;;5092021;27;49787;-76
2023/04/03 12:01:49;;;;;;;;;2.00;2.00;;;;;;;;5088849;27;50039;-76
2023/04/03 12:04:16;;;;;;;;;4.00;4.00;;;;;;;;5085662;27;49848;-76
2023/04/03 12:06:48;;;;;;;;;8.75;7.00;;;;;;;;5090535;27;49784;-75
2023/04/03 12:09:23;;;;;;;;;5.75;4.75;;;;;;;;5091782;27;50323;-77
2023/04/03 12:11:48;;;;;;;;;5.00;5.00;;;;;;;;5072620;27;50004;-76
2023/04/03 12:14:16;;;;;;;;;1.00;1.00;;;;;;;;5088704;27;49853;-75
2023/04/03 12:16:42;;;;;;;;;4.75;4.75;;;;;;;;5071902;27;50074;-76
2023/04/03 12:19:25;;;;;;;;;5.00;4.00;;;;;;;;5089462;27;49818;-77
2023/04/03 12:21:58;;;;;;;;;7.00;7.00;;;;;;;;5089661;27;49936;-78
2023/04/03 12:24:33;;;;;;;;;4.75;4.75;;;;;;;;5090890;27;50627;-76
2023/04/03 12:27:16;;;;;;;;;7.75;6.50;;;;;;;;5087568;27;49606;-75
2023/04/03 12:29:42;;;;;;;;;7.25;6.75;;;;;;;;5090091;27;49856;-76
2023/04/03 12:32:26;;;;;;;;;6.50;6.50;;;;;;;;5090824;27;50156;-77
2023/04/03 12:34:57;;;;;;;;;5.50;4.00;;;;;;;;5074133;27;50172;-74
2023/04/03 12:37:32;;;;;;;;;6.00;6.00;;;;;;;;5091585;27;49799;-76
2023/04/03 12:40:20;;;;;;;;;7.75;5.00;;;;;;;;5091781;27;49665;-77
2023/04/03 12:42:58;;;;;;;;;2.50;2.50;;;;;;;;5088892;27;50046;-76
2023/04/03 12:45:23;;;;;;;;;5.25;5.25;;;;;;;;5091037;27;51412;-75
2023/04/03 12:47:50;;;;;;;;;10.00;9.00;;;;;;;;5089183;27;50121;-77
2023/04/03 12:50:19;;;;;;;;;7.00;5.00;;;;;;;;5086160;27;50062;-76
2023/04/03 12:52:47;;;;;;;;;5.00;5.00;;;;;;;;5090045;27;50371;-78
2023/04/03 12:55:22;;;;;;;;;6.50;5.00;;;;;;;;5088468;27;49894;-78
2023/04/03 12:57:47;;;;;;;;;9.00;5.00;;;;;;;;5091391;27;49746;-78
2023/04/03 13:00:21;;;;;;;;;4.75;4.75;;;;;;;;5091921;27;49736;-79
2023/04/03 13:02:47;;;;;;;;;7.25;5.00;;;;;;;;5090534;27;50126;-81
2023/04/03 13:05:17;;;;;;;;;3.50;3.50;;;;;;;;5091330;27;50060;-78
2023/04/03 13:07:43;;;;;;;;;9.25;8.25;;;;;;;;5091223;27;50240;-76
2023/04/03 13:10:08;;;;;;;;;4.75;4.75;;;;;;;;5090825;27;49825;-78
2023/04/03 13:12:34;;;;;;;;;4.80;4.80;;;;;;;;5091203;27;49701;-76
2023/04/03 13:15:03;;;;;;;;;4.00;4.00;;;;;;;;5090838;27;50737;-77
2023/04/03 13:17:29;;;;;;;;;1.75;1.75;;;;;;;;5091293;27;49859;-75
2023/04/03 13:19:54;;;;;;;;;4.00;4.00;;;;;;;;5090751;27;50056;-74
2023/04/03 13:22:19;;;;;;;;;5.00;5.00;;;;;;;;5091337;27;50138;-76
2023/04/03 13:24:50;;;;;;;;;4.40;4.20;;;;;;;;5090883;27;50603;-76
2023/04/03 13:27:16;;;;;;;;;4.00;4.00;;;;;;;;5071634;27;49655;-76
2023/04/03 13:29:41;;;;;;;;;4.25;3.25;;;;;;;;5090728;27;50198;-76
2023/04/03 13:32:07;;;;;;;;;4.00;4.00;;;;;;;;5088266;27;49682;-76
2023/04/03 13:34:37;;;;;;;;;5.25;4.00;;;;;;;;5088564;27;50011;-76
2023/04/03 13:37:04;;;;;;;;;2.75;2.75;;;;;;;;5090593;27;50126;-77
2023/04/03 13:39:33;;;;;;;;;5.50;5.50;;;;;;;;5084442;27;49751;-75
2023/04/03 13:42:20;;;;;;;;;4.00;4.00;;;;;;;;5088924;27;50074;-75
2023/04/03 13:44:47;;;;;;;;;5.00;3.75;;;;;;;;5069476;27;51572;-75
2023/04/03 13:47:23;;;;;;;;;7.50;5.00;;;;;;;;5068119;27;49871;-74
2023/04/03 13:50:03;;;;;;;;;5.75;4.00;;;;;;;;5082624;27;49972;-75
2023/04/03 13:52:35;;;;;;;;;6.00;4.75;;;;;;;;5087111;27;49681;-75
2023/04/03 13:55:01;;;;;;;;;3.25;2.00;;;;;;;;5089953;27;49945;-75
2023/04/03 13:57:27;;;;;;;;;4.00;4.00;;;;;;;;5090130;27;49781;-75
2023/04/03 13:59:53;;;;;;;;;4.25;4.25;;;;;;;;5071717;27;49739;-76
2023/04/03 14:02:23;;;;;;;;;8.00;5.25;;;;;;;;5090531;27;49695;-76
2023/04/03 14:04:50;;;;;;;;;3.00;3.00;;;;;;;;5089815;27;51497;-76
2023/04/03 14:07:16;;;;;;;;;6.00;4.00;;;;;;;;5088740;27;49803;-76
2023/04/03 14:09:42;;;;;;;;;3.50;3.50;;;;;;;;5091162;27;50296;-75
2023/04/03 14:12:33;;;;;;;;;3.25;3.25;;;;;;;;5090498;27;50069;-76
2023/04/03 14:15:02;;;;;;;;;7.25;3.25;;;;;;;;5080068;27;49829;-76
2023/04/03 14:17:28;;;;;;;;;9.00;6.25;;;;;;;;5090203;27;49732;-77
2023/04/03 14:19:54;;;;;;;;;2.50;2.50;;;;;;;;5082944;27;50349;-76
2023/04/03 14:22:38;;;;;;;;;4.00;4.00;;;;;;;;5070762;27;50267;-76
2023/04/03 14:25:03;;;;;;;;;3.25;2.50;;;;;;;;5078966;27;50156;-75
2023/04/03 14:27:54;;;;;;;;;5.50;4.50;;;;;;;;5084289;27;49720;-74
2023/04/03 14:30:38;;;;;;;;;2.25;2.25;;;;;;;;5081916;27;50010;-76
2023/04/03 14:33:03;;;;;;;;;5.00;3.25;;;;;;;;5089145;27;50115;-74
2023/04/03 14:35:28;;;;;;;;;4.75;3.75;;;;;;;;5084064;27;50626;-74
2023/04/03 14:37:54;;;;;;;;;4.25;4.25;;;;;;;;5063059;27;49751;-74
2023/04/03 14:40:21;;;;;;;;;6.25;3.25;;;;;;;;5079390;27;51040;-76
2023/04/03 14:42:48;;;;;;;;;2.50;2.50;;;;;;;;5076220;27;49685;-75
2023/04/03 14:45:15;;;;;;;;;6.25;6.25;;;;;;;;5079553;27;51467;-75
2023/04/03 14:47:48;;;;;;;;;3.25;3.25;;;;;;;;5079131;27;49912;-77
2023/04/03 14:50:16;;;;;;;;;5.00;4.75;;;;;;;;5060787;27;50052;-74
2023/04/03 14:52:41;;;;;;;;;2.75;2.75;;;;;;;;5080959;27;50058;-75
2023/04/03 14:55:06;;;;;;;;;7.00;5.00;;;;;;;;5079802;27;49898;-75
2023/04/03 14:57:32;;;;;;;;;5.00;5.00;;;;;;;;5078709;27;49882;-74
2023/04/03 14:59:57;;;;;;;;;6.00;4.25;;;;;;;;5081158;27;50085;-76
2023/04/03 15:02:28;;;;;;;;;4.00;3.00;;;;;;;;5081631;27;50255;-75
2023/04/03 15:04:57;;;;;;;;;4.00;3.75;;;;;;;;5080009;27;49911;-76
2023/04/03 15:07:24;;;;;;;;;5.00;5.00;;;;;;;;5080094;27;50876;-76
2023/04/03 15:09:49;;;;;;;;;3.00;3.00;;;;;;;;5079975;27;49807;-76
2023/04/03 15:12:15;;;;;;;;;4.25;3.00;;;;;;;;5079071;27;49819;-76
2023/04/03 15:14:40;;;;;;;;;4.25;4.25;;;;;;;;5077384;27;50785;-76
2023/04/03 15:17:06;;;;;;;;;3.25;2.75;;;;;;;;5079849;27;50042;-76
2023/04/03 15:19:38;;;;;;;;;4.25;4.25;;;;;;;;5059014;27;49908;-75
2023/04/03 15:22:03;;;;;;;;;4.00;4.00;;;;;;;;5074627;27;50183;-75
2023/04/03 15:24:28;;;;;;;;;3.00;3.00;;;;;;;;5086166;27;49796;-75
2023/04/03 15:26:54;;;;;;;;;4.00;4.00;;;;;;;;5081329;27;50025;-76
2023/04/03 15:29:19;;;;;;;;;5.25;4.25;;;;;;;;5087217;27;49740;-75
2023/04/03 15:31:44;;;;;;;;;6.00;5.50;;;;;;;;5089559;27;49747;-75
2023/04/03 15:34:09;;;;;;;;;5.00;4.00;;;;;;;;5088171;27;50688;-76
2023/04/03 15:36:35;;;;;;;;;6.00;5.00;;;;;;;;5079962;27;49724;-73
2023/04/03 15:39:00;;;;;;;;;3.00;3.00;;;;;;;;5082890;27;50005;-76
2023/04/03 15:41:25;;;;;;;;;5.00;5.00;;;;;;;;5082933;27;49558;-76
2023/04/03 15:43:50;;;;;;;;;5.25;5.00;;;;;;;;5086425;27;49810;-76
2023/04/03 15:46:16;;;;;;;;;4.75;3.50;;;;;;;;5088624;27;49773;-74
2023/04/03 15:48:41;;;;;;;;;4.25;4.25;;;;;;;;5088619;27;49811;-74
2023/04/03 15:51:06;;;;;;;;;4.75;4.75;;;;;;;;5088448;27;49675;-74
2023/04/03 15:53:32;;;;;;;;;4.25;4.25;;;;;;;;5087607;27;49825;-75
2023/04/03 15:55:57;;;;;;;;;3.75;3.50;;;;;;;;5088028;27;49747;-76
2023/04/03 15:58:22;;;;;;;;;6.25;5.25;;;;;;;;5087811;27;50173;-77
2023/04/03 16:00:47;;;;;;;;;2.75;2.75;;;;;;;;5088129;27;49960;-78
2023/04/03 16:03:16;;;;;;;;;4.00;3.00;;;;;;;;5088482;27;50582;-78
2023/04/03 16:05:41;;;;;;;;;6.25;4.50;;;;;;;;5083342;27;49857;-76
2023/04/03 16:08:07;;;;;;;;;5.00;4.00;;;;;;;;5085677;27;50108;-79
2023/04/03 16:10:32;;;;;;;;;2.00;2.00;;;;;;;;5088982;27;49996;-81
2023/04/03 16:12:58;;;;;;;;;3.50;3.50;;;;;;;;5088420;27;50788;-78
2023/04/03 16:15:24;;;;;;;;;4.75;4.75;;;;;;;;5088035;27;50121;-79
2023/04/03 16:17:49;;;;;;;;;3.25;3.25;;;;;;;;5088705;27;50314;-79
2023/04/03 16:20:15;;;;;;;;;5.25;5.00;;;;;;;;5088665;27;50132;-77
2023/04/03 16:22:41;;;;;;;;;3.50;3.50;;;;;;;;5087563;27;50949;-78
2023/04/03 16:25:07;;;;;;;;;3.75;3.75;;;;;;;;5088198;27;49963;-75
2023/04/03 16:27:32;;;;;;;;;3.75;3.75;;;;;;;;5088802;27;49898;-75
2023/04/03 16:29:57;;;;;;;;;4.50;4.50;;;;;;;;5091146;27;49695;-78
2023/04/03 16:32:24;;;;;;;;;4.25;4.25;;;;;;;;5091947;27;50876;-78
2023/04/03 16:34:49;;;;;;;;;6.75;6.00;;;;;;;;5071243;27;50129;-76
2023/04/03 16:37:15;;;;;;;;;8.00;3.25;;;;;;;;5072908;27;49815;-77
2023/04/03 16:39:40;;;;;;;;;3.00;3.00;;;;;;;;5089755;27;49994;-77
2023/04/03 16:42:06;;;;;;;;;4.00;4.00;;;;;;;;5091522;27;50156;-76
2023/04/03 16:44:31;;;;;;;;;3.50;3.50;;;;;;;;5091245;27;49962;-76
2023/04/03 16:46:56;;;;;;;;;4.50;4.00;;;;;;;;5072577;27;49937;-76
2023/04/03 16:49:21;;;;;;;;;4.00;3.00;;;;;;;;5073352;27;49941;-77
2023/04/03 16:51:48;;;;;;;;;2.75;2.75;;;;;;;;5090988;27;49937;-76
2023/04/03 16:54:13;;;;;;;;;3.50;2.75;;;;;;;;5090897;27;49703;-76
2023/04/03 16:56:38;;;;;;;;;4.00;4.00;;;;;;;;5091284;27;49791;-76
2023/04/03 16:59:04;;;;;;;;;3.25;3.00;;;;;;;;5091171;27;49750;-76
2023/04/03 17:01:29;;;;;;;;;2.00;2.00;;;;;;;;5091011;27;49784;-76
2023/04/03 17:03:54;;;;;;;;;3.00;3.00;;;;;;;;5090895;27;49772;-77
2023/04/03 17:06:20;;;;;;;;;2.75;2.75;;;;;;;;5072451;27;49807;-77
2023/04/03 17:08:47;;;;;;;;;4.00;2.75;;;;;;;;5091283;27;49982;-76
2023/04/03 17:11:12;;;;;;;;;3.75;2.00;;;;;;;;5090913;27;50069;-76
2023/04/03 17:13:37;;;;;;;;;3.00;3.00;;;;;;;;5090601;27;50224;-77
2023/04/03 17:16:05;;;;;;;;;2.25;2.25;;;;;;;;5090891;27;49644;-76
2023/04/03 17:18:30;;;;;;;;;3.50;3.50;;;;;;;;5090401;27;49728;-77
2023/04/03 17:20:56;;;;;;;;;2.75;2.75;;;;;;;;5089885;27;49909;-77
2023/04/03 17:23:21;;;;;;;;;4.00;4.00;;;;;;;;5090589;27;49923;-84
2023/04/03 17:25:46;;;;;;;;;3.50;2.75;;;;;;;;5090688;27;49855;-73
2023/04/03 17:28:12;;;;;;;;;2.50;2.50;;;;;;;;5089677;27;49938;-73
2023/04/03 17:30:37;;;;;;;;;4.00;4.00;;;;;;;;5090488;27;49915;-77
2023/04/03 17:33:02;;;;;;;;;3.25;3.00;;;;;;;;5088796;27;49740;-73
2023/04/03 17:35:27;;;;;;;;;4.25;3.75;;;;;;;;5085551;27;49699;-75
2023/04/03 17:37:53;;;;;;;;;3.00;3.00;;;;;;;;5085826;27;49743;-75
2023/04/03 17:40:18;;;;;;;;;4.50;3.50;;;;;;;;5087985;27;51306;-75
2023/04/03 17:42:43;;;;;;;;;3.50;3.25;;;;;;;;5088271;27;49711;-74
2023/04/03 17:45:08;;;;;;;;;3.75;3.75;;;;;;;;5087034;27;49933;-75
2023/04/03 17:47:34;;;;;;;;;3.00;3.00;;;;;;;;5082912;27;49834;-75
2023/04/03 17:49:59;;;;;;;;;2.00;2.00;;;;;;;;5089400;27;49866;-74
2023/04/03 17:52:27;;;;;;;;;4.00;4.00;;;;;;;;5088379;27;50028;-76
2023/04/03 17:54:52;;;;;;;;;1.00;1.00;;;;;;;;5087952;27;50072;-72
2023/04/03 17:57:17;;;;;;;;;3.00;3.00;;;;;;;;5089330;27;49720;-75
2023/04/03 17:59:43;;;;;;;;;3.00;3.00;;;;;;;;5089963;27;50895;-76
2023/04/03 18:02:08;;;;;;;;;2.25;2.00;;;;;;;;5083995;27;50308;-75
2023/04/03 18:04:33;;;;;;;;;4.00;3.00;;;;;;;;5086626;27;49860;-76
2023/04/03 18:06:58;;;;;;;;;5.00;3.00;;;;;;;;5090382;27;49566;-77
2023/04/03 18:09:30;;;;;;;;;4.00;2.75;;;;;;;;5087069;27;50583;-78
2023/04/03 18:11:56;;;;;;;;;2.00;2.00;;;;;;;;5089119;27;49956;-81
2023/04/03 18:14:22;;;;;;;;;4.75;4.75;;;;;;;;5089427;27;49720;-75
2023/04/03 18:16:48;;;;;;;;;7.00;3.00;;;;;;;;5089597;27;49949;-74
2023/04/03 18:19:13;;;;;;;;;2.50;2.50;;;;;;;;5089194;27;52171;-76
2023/04/03 18:21:38;;;;;;;;;4.00;3.75;;;;;;;;5089459;27;49632;-77
2023/04/03 18:24:06;;;;;;;;;2.25;1.25;;;;;;;;5071138;27;49632;-78
2023/04/03 18:26:31;;;;;;;;;2.00;2.00;;;;;;;;5071410;27;49930;-77
2023/04/03 18:28:59;;;;;;;;;5.00;3.00;;;;;;;;5089536;27;49863;-77
2023/04/03 18:31:25;;;;;;;;;3.75;3.75;;;;;;;;5089986;27;49776;-77
2023/04/03 18:33:53;;;;;;;;;3.75;3.75;;;;;;;;5089678;27;50190;-77
2023/04/03 18:36:18;;;;;;;;;3.00;3.00;;;;;;;;5089859;27;50374;-77
2023/04/03 18:38:44;;;;;;;;;2.25;2.25;;;;;;;;5089430;27;50136;-74
2023/04/03 18:41:09;;;;;;;;;2.50;2.50;;;;;;;;5087027;27;49707;-76
2023/04/03 18:43:34;;;;;;;;;3.25;3.25;;;;;;;;5085534;27;49785;-77
2023/04/03 18:46:00;;;;;;;;;3.50;2.75;;;;;;;;5089543;27;50937;-80
2023/04/03 18:48:25;;;;;;;;;4.00;4.00;;;;;;;;5069856;27;52355;-77
2023/04/03 18:50:50;;;;;;;;;1.75;1.75;;;;;;;;5089215;27;50220;-75
2023/04/03 18:53:16;;;;;;;;;4.00;2.75;;;;;;;;5088323;27;50071;-74
2023/04/03 18:55:41;;;;;;;;;4.25;3.00;;;;;;;;5089496;27;50017;-77
2023/04/03 18:58:07;;;;;;;;;3.00;3.00;;;;;;;;5089331;27;50937;-72
2023/04/03 19:00:32;;;;;;;;;3.75;2.50;;;;;;;;5087316;27;50492;-73
2023/04/03 19:02:58;;;;;;;;;3.00;3.00;;;;;;;;5088935;27;49996;-80
2023/04/03 19:05:25;;;;;;;;;2.50;2.50;;;;;;;;5089041;27;49917;-75
2023/04/03 19:07:53;;;;;;;;;5.00;4.25;;;;;;;;5087644;27;50969;-80
2023/04/03 19:10:18;;;;;;;;;4.00;4.00;;;;;;;;5065449;27;49799;-76
2023/04/03 19:12:44;;;;;;;;;5.25;5.25;;;;;;;;5088842;27;49826;-77
2023/04/03 19:15:10;;;;;;;;;7.00;4.75;;;;;;;;5064900;28;49727;-74
2023/04/03 19:17:35;;;;;;;;;6.25;3.50;;;;;;;;5087524;27;51445;-74
2023/04/03 19:20:01;;;;;;;;;5.25;4.00;;;;;;;;5088745;27;50157;-74
2023/04/03 19:22:26;;;;;;;;;5.50;5.50;;;;;;;;5088724;27;49759;-74